sensor_id;sensor_type;location;lat;lon;timestamp;P1;durP1;ratioP1;P2;durP2;ratioP2
44204;SDS011;30163;42.698;23.344;2022-09-09T00:03:49;23.60;;;13.68;;
44204;SDS011;30163;42.698;23.344;2022-09-09T00:06:30;22.08;;;13.70;;
44204;SDS011;30163;42.698;23.344;2022-09-09T00:09:16;20.60;;;13.20;;
44204;SDS011;30163;42.698;23.344;2022-09-09T00:11:43;19.30;;;13.18;;
44204;SDS011;30163;42.698;23.344;2022-09-09T00:14:13;21.08;;;15.32;;
44204;SDS011;30163;42.698;23.344;2022-09-09T00:24:42;23.95;;;14.80;;
44204;SDS011;30163;42.698;23.344;2022-09-09T00:27:11;29.45;;;14.65;;
44204;SDS011;30163;42.698;23.344;2022-09-09T00:29:42;20.35;;;15.73;;
44204;SDS011;30163;42.698;23.344;2022-09-09T00:32:19;32.42;;;16.92;;
44204;SDS011;30163;42.698;23.344;2022-09-09T00:34:49;24.20;;;17.10;;
44204;SDS011;30163;42.698;23.344;2022-09-09T00:37:18;26.33;;;16.15;;
44204;SDS011;30163;42.698;23.344;2022-09-09T00:39:45;28.63;;;15.90;;
44204;SDS011;30163;42.698;23.344;2022-09-09T00:42:18;31.75;;;17.88;;
44204;SDS011;30163;42.698;23.344;2022-09-09T00:44:53;25.40;;;16.58;;
44204;SDS011;30163;42.698;23.344;2022-09-09T00:47:44;25.88;;;16.80;;
44204;SDS011;30163;42.698;23.344;2022-09-09T00:50:17;26.80;;;16.23;;
44204;SDS011;30163;42.698;23.344;2022-09-09T00:55:39;23.35;;;16.33;;
44204;SDS011;30163;42.698;23.344;2022-09-09T00:58:10;31.60;;;16.15;;
44204;SDS011;30163;42.698;23.344;2022-09-09T01:00:57;25.38;;;15.48;;
44204;SDS011;30163;42.698;23.344;2022-09-09T01:03:37;29.63;;;16.27;;
44204;SDS011;30163;42.698;23.344;2022-09-09T01:09:46;23.60;;;16.17;;
44204;SDS011;30163;42.698;23.344;2022-09-09T01:17:01;30.20;;;16.33;;
44204;SDS011;30163;42.698;23.344;2022-09-09T01:19:40;26.80;;;15.82;;
44204;SDS011;30163;42.698;23.344;2022-09-09T01:27:41;29.77;;;15.98;;
44204;SDS011;30163;42.698;23.344;2022-09-09T01:30:09;29.23;;;17.10;;
44204;SDS011;30163;42.698;23.344;2022-09-09T01:32:40;25.65;;;16.25;;
44204;SDS011;30163;42.698;23.344;2022-09-09T01:35:15;27.65;;;16.40;;
44204;SDS011;30163;42.698;23.344;2022-09-09T01:37:44;24.05;;;16.48;;
44204;SDS011;30163;42.698;23.344;2022-09-09T01:40:09;23.77;;;17.23;;
44204;SDS011;30163;42.698;23.344;2022-09-09T01:42:34;26.55;;;17.00;;
44204;SDS011;30163;42.698;23.344;2022-09-09T01:45:00;25.42;;;17.05;;
44204;SDS011;30163;42.698;23.344;2022-09-09T01:47:25;27.48;;;17.55;;
44204;SDS011;30163;42.698;23.344;2022-09-09T01:49:51;27.48;;;17.73;;
44204;SDS011;30163;42.698;23.344;2022-09-09T01:52:16;23.27;;;17.15;;
44204;SDS011;30163;42.698;23.344;2022-09-09T01:54:42;24.67;;;17.58;;
44204;SDS011;30163;42.698;23.344;2022-09-09T01:57:21;30.33;;;18.20;;
44204;SDS011;30163;42.698;23.344;2022-09-09T02:02:48;25.45;;;17.33;;
44204;SDS011;30163;42.698;23.344;2022-09-09T02:07:50;26.15;;;17.77;;
44204;SDS011;30163;42.698;23.344;2022-09-09T02:10:24;24.02;;;18.65;;
44204;SDS011;30163;42.698;23.344;2022-09-09T02:13:00;37.45;;;18.48;;
44204;SDS011;30163;42.698;23.344;2022-09-09T02:17:56;25.50;;;17.50;;
44204;SDS011;30163;42.698;23.344;2022-09-09T02:20:22;30.10;;;19.02;;
44204;SDS011;30163;42.698;23.344;2022-09-09T02:22:49;29.55;;;18.50;;
44204;SDS011;30163;42.698;23.344;2022-09-09T02:25:16;25.52;;;18.30;;
44204;SDS011;30163;42.698;23.344;2022-09-09T02:27:43;29.67;;;17.75;;
44204;SDS011;30163;42.698;23.344;2022-09-09T02:30:10;29.17;;;18.85;;
44204;SDS011;30163;42.698;23.344;2022-09-09T02:32:36;30.33;;;19.15;;
44204;SDS011;30163;42.698;23.344;2022-09-09T02:35:12;36.88;;;19.23;;
44204;SDS011;30163;42.698;23.344;2022-09-09T02:37:39;27.02;;;18.77;;
44204;SDS011;30163;42.698;23.344;2022-09-09T02:40:07;31.73;;;18.92;;
44204;SDS011;30163;42.698;23.344;2022-09-09T02:42:45;25.67;;;20.15;;
44204;SDS011;30163;42.698;23.344;2022-09-09T02:45:12;31.23;;;18.50;;
44204;SDS011;30163;42.698;23.344;2022-09-09T02:47:43;32.30;;;19.85;;
44204;SDS011;30163;42.698;23.344;2022-09-09T02:50:12;30.10;;;20.90;;
44204;SDS011;30163;42.698;23.344;2022-09-09T02:55:18;29.27;;;20.20;;
44204;SDS011;30163;42.698;23.344;2022-09-09T02:57:51;29.70;;;20.15;;
44204;SDS011;30163;42.698;23.344;2022-09-09T03:00:22;32.95;;;21.55;;
44204;SDS011;30163;42.698;23.344;2022-09-09T03:02:49;32.03;;;22.15;;
44204;SDS011;30163;42.698;23.344;2022-09-09T03:05:15;33.38;;;21.67;;
44204;SDS011;30163;42.698;23.344;2022-09-09T03:07:41;35.25;;;21.20;;
44204;SDS011;30163;42.698;23.344;2022-09-09T03:10:06;35.20;;;21.80;;
44204;SDS011;30163;42.698;23.344;2022-09-09T03:12:33;32.33;;;21.17;;
44204;SDS011;30163;42.698;23.344;2022-09-09T03:14:59;31.58;;;20.33;;
44204;SDS011;30163;42.698;23.344;2022-09-09T03:17:25;30.45;;;20.33;;
44204;SDS011;30163;42.698;23.344;2022-09-09T03:19:53;31.58;;;21.67;;
44204;SDS011;30163;42.698;23.344;2022-09-09T03:22:19;33.10;;;21.92;;
44204;SDS011;30163;42.698;23.344;2022-09-09T03:24:46;29.40;;;19.92;;
44204;SDS011;30163;42.698;23.344;2022-09-09T03:27:12;32.75;;;20.90;;
44204;SDS011;30163;42.698;23.344;2022-09-09T03:29:39;43.30;;;22.25;;
44204;SDS011;30163;42.698;23.344;2022-09-09T03:32:04;39.15;;;22.10;;
44204;SDS011;30163;42.698;23.344;2022-09-09T03:34:33;35.63;;;20.88;;
44204;SDS011;30163;42.698;23.344;2022-09-09T03:36:58;38.58;;;23.73;;
44204;SDS011;30163;42.698;23.344;2022-09-09T03:39:24;105.18;;;58.60;;
44204;SDS011;30163;42.698;23.344;2022-09-09T03:41:49;37.00;;;24.67;;
44204;SDS011;30163;42.698;23.344;2022-09-09T03:44:15;37.95;;;23.27;;
44204;SDS011;30163;42.698;23.344;2022-09-09T03:46:40;34.65;;;22.35;;
44204;SDS011;30163;42.698;23.344;2022-09-09T03:49:06;35.42;;;22.05;;
44204;SDS011;30163;42.698;23.344;2022-09-09T03:51:31;39.80;;;23.17;;
44204;SDS011;30163;42.698;23.344;2022-09-09T03:53:59;39.75;;;26.02;;
44204;SDS011;30163;42.698;23.344;2022-09-09T03:56:25;37.63;;;23.60;;
44204;SDS011;30163;42.698;23.344;2022-09-09T03:58:50;45.50;;;22.52;;
44204;SDS011;30163;42.698;23.344;2022-09-09T04:01:15;34.60;;;22.42;;
44204;SDS011;30163;42.698;23.344;2022-09-09T04:03:42;35.35;;;22.17;;
44204;SDS011;30163;42.698;23.344;2022-09-09T04:06:09;44.05;;;23.30;;
44204;SDS011;30163;42.698;23.344;2022-09-09T04:08:37;37.40;;;23.10;;
44204;SDS011;30163;42.698;23.344;2022-09-09T04:11:03;37.38;;;23.52;;
44204;SDS011;30163;42.698;23.344;2022-09-09T04:13:31;36.92;;;22.25;;
44204;SDS011;30163;42.698;23.344;2022-09-09T04:15:58;43.63;;;21.90;;
44204;SDS011;30163;42.698;23.344;2022-09-09T04:18:24;34.78;;;20.77;;
44204;SDS011;30163;42.698;23.344;2022-09-09T04:20:51;29.02;;;19.85;;
44204;SDS011;30163;42.698;23.344;2022-09-09T04:23:17;36.78;;;21.02;;
44204;SDS011;30163;42.698;23.344;2022-09-09T04:25:46;42.53;;;20.90;;
44204;SDS011;30163;42.698;23.344;2022-09-09T04:28:14;38.35;;;19.95;;
44204;SDS011;30163;42.698;23.344;2022-09-09T04:30:40;27.23;;;18.95;;
44204;SDS011;30163;42.698;23.344;2022-09-09T04:33:06;35.92;;;18.40;;
44204;SDS011;30163;42.698;23.344;2022-09-09T04:35:32;36.80;;;18.48;;
44204;SDS011;30163;42.698;23.344;2022-09-09T04:37:58;34.72;;;20.48;;
44204;SDS011;30163;42.698;23.344;2022-09-09T04:40:23;61.80;;;32.40;;
44204;SDS011;30163;42.698;23.344;2022-09-09T04:42:49;45.03;;;28.73;;
44204;SDS011;30163;42.698;23.344;2022-09-09T04:45:15;28.88;;;17.98;;
44204;SDS011;30163;42.698;23.344;2022-09-09T04:47:41;29.70;;;16.17;;
44204;SDS011;30163;42.698;23.344;2022-09-09T04:50:07;30.98;;;17.58;;
44204;SDS011;30163;42.698;23.344;2022-09-09T04:52:36;25.50;;;17.70;;
44204;SDS011;30163;42.698;23.344;2022-09-09T04:55:02;32.20;;;17.73;;
44204;SDS011;30163;42.698;23.344;2022-09-09T04:57:29;34.13;;;17.98;;
44204;SDS011;30163;42.698;23.344;2022-09-09T04:59:57;39.60;;;20.00;;
44204;SDS011;30163;42.698;23.344;2022-09-09T05:02:23;32.58;;;18.02;;
44204;SDS011;30163;42.698;23.344;2022-09-09T05:04:48;43.97;;;25.52;;
44204;SDS011;30163;42.698;23.344;2022-09-09T05:07:14;34.47;;;16.55;;
44204;SDS011;30163;42.698;23.344;2022-09-09T05:09:40;26.90;;;16.55;;
44204;SDS011;30163;42.698;23.344;2022-09-09T05:12:05;30.15;;;16.27;;
44204;SDS011;30163;42.698;23.344;2022-09-09T05:14:31;24.60;;;16.40;;
44204;SDS011;30163;42.698;23.344;2022-09-09T05:16:56;24.95;;;16.02;;
44204;SDS011;30163;42.698;23.344;2022-09-09T05:19:23;30.75;;;17.02;;
44204;SDS011;30163;42.698;23.344;2022-09-09T05:21:48;37.13;;;17.85;;
44204;SDS011;30163;42.698;23.344;2022-09-09T05:24:14;31.17;;;16.60;;
44204;SDS011;30163;42.698;23.344;2022-09-09T05:26:40;29.95;;;17.23;;
44204;SDS011;30163;42.698;23.344;2022-09-09T05:29:06;31.50;;;16.83;;
44204;SDS011;30163;42.698;23.344;2022-09-09T05:31:31;32.97;;;17.10;;
44204;SDS011;30163;42.698;23.344;2022-09-09T05:33:58;31.38;;;19.45;;
44204;SDS011;30163;42.698;23.344;2022-09-09T05:36:24;40.00;;;17.15;;
44204;SDS011;30163;42.698;23.344;2022-09-09T05:38:49;35.22;;;17.98;;
44204;SDS011;30163;42.698;23.344;2022-09-09T05:41:15;42.83;;;19.17;;
44204;SDS011;30163;42.698;23.344;2022-09-09T05:43:42;41.65;;;19.40;;
44204;SDS011;30163;42.698;23.344;2022-09-09T05:46:22;34.08;;;19.48;;
44204;SDS011;30163;42.698;23.344;2022-09-09T05:48:50;45.00;;;19.90;;
44204;SDS011;30163;42.698;23.344;2022-09-09T05:51:23;56.45;;;19.38;;
44204;SDS011;30163;42.698;23.344;2022-09-09T05:53:49;47.10;;;19.33;;
44204;SDS011;30163;42.698;23.344;2022-09-09T05:56:23;42.28;;;18.42;;
44204;SDS011;30163;42.698;23.344;2022-09-09T05:58:50;39.72;;;16.23;;
44204;SDS011;30163;42.698;23.344;2022-09-09T06:01:20;45.92;;;16.40;;
44204;SDS011;30163;42.698;23.344;2022-09-09T06:03:50;33.42;;;15.27;;
44204;SDS011;30163;42.698;23.344;2022-09-09T06:06:17;32.13;;;12.60;;
44204;SDS011;30163;42.698;23.344;2022-09-09T06:08:47;42.80;;;11.35;;
44204;SDS011;30163;42.698;23.344;2022-09-09T06:11:17;63.42;;;24.45;;
44204;SDS011;30163;42.698;23.344;2022-09-09T06:13:43;30.38;;;12.73;;
44204;SDS011;30163;42.698;23.344;2022-09-09T06:16:17;44.22;;;8.80;;
44204;SDS011;30163;42.698;23.344;2022-09-09T06:18:43;23.35;;;8.57;;
44204;SDS011;30163;42.698;23.344;2022-09-09T06:21:11;21.65;;;8.57;;
44204;SDS011;30163;42.698;23.344;2022-09-09T06:23:41;19.10;;;8.05;;
44204;SDS011;30163;42.698;23.344;2022-09-09T06:26:09;13.55;;;8.15;;
44204;SDS011;30163;42.698;23.344;2022-09-09T06:28:38;15.60;;;7.85;;
44204;SDS011;30163;42.698;23.344;2022-09-09T06:31:05;16.23;;;7.43;;
44204;SDS011;30163;42.698;23.344;2022-09-09T06:33:34;17.17;;;7.63;;
44204;SDS011;30163;42.698;23.344;2022-09-09T06:36:01;18.38;;;7.93;;
44204;SDS011;30163;42.698;23.344;2022-09-09T06:38:28;18.25;;;8.63;;
44204;SDS011;30163;42.698;23.344;2022-09-09T06:40:54;25.52;;;7.95;;
44204;SDS011;30163;42.698;23.344;2022-09-09T06:43:21;14.68;;;8.30;;
44204;SDS011;30163;42.698;23.344;2022-09-09T06:46:01;17.52;;;8.00;;
44204;SDS011;30163;42.698;23.344;2022-09-09T06:48:28;11.85;;;7.38;;
44204;SDS011;30163;42.698;23.344;2022-09-09T06:51:07;13.88;;;7.80;;
44204;SDS011;30163;42.698;23.344;2022-09-09T06:53:34;13.88;;;7.07;;
44204;SDS011;30163;42.698;23.344;2022-09-09T06:56:01;13.07;;;7.05;;
44204;SDS011;30163;42.698;23.344;2022-09-09T06:58:28;12.02;;;7.50;;
44204;SDS011;30163;42.698;23.344;2022-09-09T07:01:06;15.32;;;6.45;;
44204;SDS011;30163;42.698;23.344;2022-09-09T07:03:32;16.23;;;6.82;;
44204;SDS011;30163;42.698;23.344;2022-09-09T07:05:58;16.52;;;7.30;;
44204;SDS011;30163;42.698;23.344;2022-09-09T07:08:24;23.23;;;7.53;;
44204;SDS011;30163;42.698;23.344;2022-09-09T07:10:50;18.08;;;7.40;;
44204;SDS011;30163;42.698;23.344;2022-09-09T07:13:19;17.23;;;7.80;;
44204;SDS011;30163;42.698;23.344;2022-09-09T07:15:50;14.27;;;8.57;;
44204;SDS011;30163;42.698;23.344;2022-09-09T07:18:16;23.83;;;7.20;;
44204;SDS011;30163;42.698;23.344;2022-09-09T07:20:41;15.55;;;7.22;;
44204;SDS011;30163;42.698;23.344;2022-09-09T07:23:06;19.98;;;7.07;;
44204;SDS011;30163;42.698;23.344;2022-09-09T07:25:32;21.42;;;7.78;;
44204;SDS011;30163;42.698;23.344;2022-09-09T07:27:57;21.83;;;8.68;;
44204;SDS011;30163;42.698;23.344;2022-09-09T07:30:22;12.73;;;6.70;;
44204;SDS011;30163;42.698;23.344;2022-09-09T07:32:48;23.13;;;6.63;;
44204;SDS011;30163;42.698;23.344;2022-09-09T07:35:16;21.20;;;7.55;;
44204;SDS011;30163;42.698;23.344;2022-09-09T07:37:41;18.23;;;7.47;;
44204;SDS011;30163;42.698;23.344;2022-09-09T07:40:07;25.90;;;7.65;;
44204;SDS011;30163;42.698;23.344;2022-09-09T07:42:33;18.00;;;7.28;;
44204;SDS011;30163;42.698;23.344;2022-09-09T07:44:58;23.77;;;7.50;;
44204;SDS011;30163;42.698;23.344;2022-09-09T07:47:24;22.08;;;7.07;;
44204;SDS011;30163;42.698;23.344;2022-09-09T07:49:49;12.43;;;6.70;;
44204;SDS011;30163;42.698;23.344;2022-09-09T07:52:15;17.73;;;7.13;;
44204;SDS011;30163;42.698;23.344;2022-09-09T07:54:41;38.67;;;9.07;;
44204;SDS011;30163;42.698;23.344;2022-09-09T07:57:07;12.50;;;6.03;;
44204;SDS011;30163;42.698;23.344;2022-09-09T07:59:32;18.90;;;6.78;;
44204;SDS011;30163;42.698;23.344;2022-09-09T08:01:58;14.00;;;6.50;;
44204;SDS011;30163;42.698;23.344;2022-09-09T08:04:24;14.20;;;6.50;;
44204;SDS011;30163;42.698;23.344;2022-09-09T08:06:55;14.75;;;6.95;;
44204;SDS011;30163;42.698;23.344;2022-09-09T08:09:22;13.00;;;6.00;;
44204;SDS011;30163;42.698;23.344;2022-09-09T08:11:53;20.02;;;6.32;;
44204;SDS011;30163;42.698;23.344;2022-09-09T08:14:21;16.27;;;7.22;;
44204;SDS011;30163;42.698;23.344;2022-09-09T08:16:48;20.83;;;6.75;;
44204;SDS011;30163;42.698;23.344;2022-09-09T08:19:14;12.85;;;6.22;;
44204;SDS011;30163;42.698;23.344;2022-09-09T08:21:43;10.20;;;6.38;;
44204;SDS011;30163;42.698;23.344;2022-09-09T08:24:09;11.23;;;6.57;;
44204;SDS011;30163;42.698;23.344;2022-09-09T08:26:37;9.43;;;6.53;;
44204;SDS011;30163;42.698;23.344;2022-09-09T08:29:07;22.52;;;6.50;;
44204;SDS011;30163;42.698;23.344;2022-09-09T08:31:34;21.60;;;6.32;;
44204;SDS011;30163;42.698;23.344;2022-09-09T08:34:04;29.42;;;7.20;;
44204;SDS011;30163;42.698;23.344;2022-09-09T08:36:31;13.30;;;6.50;;
44204;SDS011;30163;42.698;23.344;2022-09-09T08:38:58;12.00;;;5.65;;
44204;SDS011;30163;42.698;23.344;2022-09-09T08:44:28;21.90;;;6.75;;
44204;SDS011;30163;42.698;23.344;2022-09-09T08:52:53;16.83;;;7.18;;
44204;SDS011;30163;42.698;23.344;2022-09-09T08:58:02;9.50;;;6.03;;
44204;SDS011;30163;42.698;23.344;2022-09-09T09:11:57;23.23;;;7.28;;
44204;SDS011;30163;42.698;23.344;2022-09-09T09:14:26;12.02;;;6.38;;
44204;SDS011;30163;42.698;23.344;2022-09-09T09:16:59;16.75;;;8.23;;
44204;SDS011;30163;42.698;23.344;2022-09-09T09:19:26;44.50;;;8.95;;
44204;SDS011;30163;42.698;23.344;2022-09-09T09:27:16;16.17;;;6.40;;
44204;SDS011;30163;42.698;23.344;2022-09-09T09:29:46;17.35;;;6.75;;
44204;SDS011;30163;42.698;23.344;2022-09-09T09:32:15;20.88;;;6.60;;
44204;SDS011;30163;42.698;23.344;2022-09-09T09:34:42;15.45;;;6.75;;
44204;SDS011;30163;42.698;23.344;2022-09-09T09:37:26;12.52;;;6.22;;
44204;SDS011;30163;42.698;23.344;2022-09-09T09:39:54;22.02;;;6.70;;
44204;SDS011;30163;42.698;23.344;2022-09-09T09:42:19;23.17;;;7.43;;
44204;SDS011;30163;42.698;23.344;2022-09-09T09:44:45;19.77;;;6.78;;
44204;SDS011;30163;42.698;23.344;2022-09-09T09:47:11;16.98;;;6.60;;
44204;SDS011;30163;42.698;23.344;2022-09-09T09:49:38;13.40;;;6.78;;
44204;SDS011;30163;42.698;23.344;2022-09-09T09:52:05;14.80;;;7.35;;
44204;SDS011;30163;42.698;23.344;2022-09-09T09:54:38;13.70;;;6.47;;
44204;SDS011;30163;42.698;23.344;2022-09-09T09:57:11;9.95;;;6.28;;
44204;SDS011;30163;42.698;23.344;2022-09-09T09:59:37;12.95;;;6.68;;
44204;SDS011;30163;42.698;23.344;2022-09-09T10:02:22;26.20;;;8.10;;
44204;SDS011;30163;42.698;23.344;2022-09-09T10:05:02;19.42;;;6.20;;
44204;SDS011;30163;42.698;23.344;2022-09-09T10:07:28;20.15;;;7.25;;
44204;SDS011;30163;42.698;23.344;2022-09-09T10:09:55;17.98;;;6.85;;
44204;SDS011;30163;42.698;23.344;2022-09-09T10:23:09;17.40;;;8.02;;
44204;SDS011;30163;42.698;23.344;2022-09-09T10:28:33;26.58;;;7.65;;
44204;SDS011;30163;42.698;23.344;2022-09-09T10:34:34;18.48;;;7.72;;
44204;SDS011;30163;42.698;23.344;2022-09-09T10:37:26;13.13;;;7.60;;
44204;SDS011;30163;42.698;23.344;2022-09-09T10:40:02;17.23;;;7.32;;
44204;SDS011;30163;42.698;23.344;2022-09-09T10:42:37;21.30;;;8.40;;
44204;SDS011;30163;42.698;23.344;2022-09-09T10:45:41;14.13;;;7.60;;
44204;SDS011;30163;42.698;23.344;2022-09-09T10:50:52;17.20;;;8.35;;
44204;SDS011;30163;42.698;23.344;2022-09-09T10:53:24;34.67;;;8.35;;
44204;SDS011;30163;42.698;23.344;2022-09-09T10:55:56;24.85;;;8.20;;
44204;SDS011;30163;42.698;23.344;2022-09-09T10:58:30;20.60;;;8.23;;
44204;SDS011;30163;42.698;23.344;2022-09-09T11:01:02;17.25;;;8.02;;
44204;SDS011;30163;42.698;23.344;2022-09-09T11:03:34;31.52;;;8.70;;
44204;SDS011;30163;42.698;23.344;2022-09-09T11:06:04;20.85;;;8.98;;
44204;SDS011;30163;42.698;23.344;2022-09-09T11:08:31;21.42;;;8.45;;
44204;SDS011;30163;42.698;23.344;2022-09-09T11:16:29;31.27;;;9.80;;
44204;SDS011;30163;42.698;23.344;2022-09-09T11:19:00;23.80;;;9.57;;
44204;SDS011;30163;42.698;23.344;2022-09-09T11:21:30;23.13;;;8.10;;
44204;SDS011;30163;42.698;23.344;2022-09-09T11:23:59;36.90;;;9.45;;
44204;SDS011;30163;42.698;23.344;2022-09-09T11:26:32;22.08;;;8.80;;
44204;SDS011;30163;42.698;23.344;2022-09-09T11:37:23;21.15;;;8.90;;
44204;SDS011;30163;42.698;23.344;2022-09-09T11:40:36;21.55;;;8.77;;
44204;SDS011;30163;42.698;23.344;2022-09-09T11:45:37;16.13;;;8.35;;
44204;SDS011;30163;42.698;23.344;2022-09-09T11:48:22;21.52;;;8.70;;
44204;SDS011;30163;42.698;23.344;2022-09-09T11:50:57;23.73;;;8.85;;
44204;SDS011;30163;42.698;23.344;2022-09-09T11:53:34;21.73;;;10.52;;
44204;SDS011;30163;42.698;23.344;2022-09-09T11:58:33;22.83;;;9.05;;
44204;SDS011;30163;42.698;23.344;2022-09-09T12:01:25;19.77;;;10.10;;
44204;SDS011;30163;42.698;23.344;2022-09-09T12:03:51;26.23;;;8.93;;
44204;SDS011;30163;42.698;23.344;2022-09-09T12:06:44;21.75;;;8.98;;
44204;SDS011;30163;42.698;23.344;2022-09-09T12:17:23;18.60;;;8.65;;
44204;SDS011;30163;42.698;23.344;2022-09-09T12:25:41;17.15;;;8.70;;
44204;SDS011;30163;42.698;23.344;2022-09-09T12:28:15;27.88;;;8.90;;
44204;SDS011;30163;42.698;23.344;2022-09-09T12:31:46;25.15;;;9.60;;
44204;SDS011;30163;42.698;23.344;2022-09-09T12:34:06;21.15;;;8.88;;
44204;SDS011;30163;42.698;23.344;2022-09-09T12:36:35;18.17;;;9.52;;
44204;SDS011;30163;42.698;23.344;2022-09-09T12:39:10;23.13;;;9.43;;
44204;SDS011;30163;42.698;23.344;2022-09-09T12:41:41;20.00;;;9.57;;
44204;SDS011;30163;42.698;23.344;2022-09-09T12:44:08;24.00;;;9.60;;
44204;SDS011;30163;42.698;23.344;2022-09-09T12:46:39;15.65;;;9.63;;
44204;SDS011;30163;42.698;23.344;2022-09-09T12:51:52;18.77;;;9.50;;
44204;SDS011;30163;42.698;23.344;2022-09-09T12:54:17;25.73;;;9.55;;
44204;SDS011;30163;42.698;23.344;2022-09-09T12:56:47;15.88;;;9.77;;
44204;SDS011;30163;42.698;23.344;2022-09-09T12:59:47;24.95;;;9.77;;
44204;SDS011;30163;42.698;23.344;2022-09-09T13:02:22;19.65;;;9.02;;
44204;SDS011;30163;42.698;23.344;2022-09-09T13:04:50;23.90;;;9.82;;
44204;SDS011;30163;42.698;23.344;2022-09-09T13:07:16;24.55;;;8.73;;
44204;SDS011;30163;42.698;23.344;2022-09-09T13:09:45;18.73;;;9.90;;
44204;SDS011;30163;42.698;23.344;2022-09-09T13:12:18;19.42;;;10.13;;
44204;SDS011;30163;42.698;23.344;2022-09-09T13:14:46;15.80;;;9.32;;
44204;SDS011;30163;42.698;23.344;2022-09-09T13:17:48;31.52;;;9.85;;
44204;SDS011;30163;42.698;23.344;2022-09-09T13:20:06;21.00;;;9.98;;
44204;SDS011;30163;42.698;23.344;2022-09-09T13:22:39;23.08;;;9.88;;
44204;SDS011;30163;42.698;23.344;2022-09-09T13:25:13;22.17;;;9.65;;
44204;SDS011;30163;42.698;23.344;2022-09-09T13:35:32;23.45;;;9.32;;
44204;SDS011;30163;42.698;23.344;2022-09-09T13:37:58;22.95;;;9.82;;
44204;SDS011;30163;42.698;23.344;2022-09-09T13:40:25;17.50;;;8.50;;
44204;SDS011;30163;42.698;23.344;2022-09-09T13:42:51;31.45;;;9.80;;
44204;SDS011;30163;42.698;23.344;2022-09-09T13:45:22;15.18;;;8.85;;
44204;SDS011;30163;42.698;23.344;2022-09-09T13:47:51;16.30;;;8.80;;
44204;SDS011;30163;42.698;23.344;2022-09-09T13:52:48;20.10;;;7.90;;
44204;SDS011;30163;42.698;23.344;2022-09-09T13:55:16;17.25;;;9.05;;
44204;SDS011;30163;42.698;23.344;2022-09-09T13:57:52;25.35;;;8.40;;
44204;SDS011;30163;42.698;23.344;2022-09-09T14:00:21;21.98;;;8.57;;
